Latest Coastal Weather Observations for Darwin Harbour

IDD60701

Issued at 3:51 am CST Tuesday 22 October 2019 (issued every 10 minutes, with the page automatically refreshed every 10 minutes)

About coastal observations | Map of coastal stations | Coastal observations for NT | Marine services | Other Formats
Station Details ID: 014072 Name: DARWIN NTC AWS Lat: -12.47 Lon: 130.85 Height: 0.0 m
Data from the previous 72 hours. | See also: Recent months for locations in Northern Territory
Date/Time
CST
Wind Sea
Height
m
Swell Vis
km
Cloud Weather Temp
°C
Press
hPa
Rain since
9am
mm
Dir  Spd
kts
Gust
kts
Height
m
Period
s
Dir
22/03:30am NW 2 3 - - - - - - - 28.3 1009.2 -
22/03:00am NNW 2 3 - - - - - - - 28.3 1009.3 -
22/02:30am NNW 2 5 - - - - - - - 28.5 1009.5 -
22/02:00am NNW 4 7 - - - - - - - 28.8 1009.5 -
22/01:30am NNW 3 5 - - - - - - - 28.9 1009.8 -
22/01:00am NW 3 6 - - - - - - - 29.1 1010.0 -
22/12:30am NW 4 8 - - - - - - - 29.3 1010.3 -
22/12:00am WNW 5 9 - - - - - - - 29.3 1010.4 -
 
Date/Time
CST
Wind Sea
Height
m
Swell Vis
km
Cloud Weather Temp
°C
Press
hPa
Rain since
9am
mm
Dir  Spd
kts
Gust
kts
Height
m
Period
s
Dir
21/11:30pm WNW 6 10 - - - - - - - 29.6 1010.5 -
21/11:00pm WNW 6 10 - - - - - - - 29.7 1010.7 -
21/10:30pm WNW 7 10 - - - - - - - 29.4 1010.7 -
21/10:00pm W 10 13 - - - - - - - 29.7 1010.6 -
21/09:30pm WNW 8 12 - - - - - - - 30.3 1010.1 -
21/09:00pm N 4 7 - - - - - - - 30.3 1009.8 -
21/08:30pm N 5 9 - - - - - - - 30.4 1009.8 -
21/08:00pm NE 2 5 - - - - - - - 31.4 1009.3 -
21/07:30pm ENE 4 7 - - - - - - - 31.5 1008.7 -
21/07:00pm NNE 4 8 - - - - - - - 32.3 1008.6 -
21/06:30pm N 5 11 - - - - - - - 32.8 1008.2 -
21/06:00pm NNE 7 13 - - - - - - - 33.0 1007.6 -
21/05:30pm NNE 7 12 - - - - - - - 33.4 1007.4 -
21/05:00pm NE 7 16 - - - - - - - 33.5 1007.1 -
21/04:30pm NNE 10 19 - - - - - - - 33.9 1007.3 -
21/04:00pm NNE 10 17 - - - - - - - 33.7 1007.4 -
21/03:30pm N 8 17 - - - - - - - 33.1 1007.8 -
21/03:00pm NW 9 17 - - - - - - - 32.6 1008.3 -
21/02:30pm NNW 11 18 - - - - - - - 31.3 1008.6 -
21/02:00pm N 13 20 - - - - - - - 31.4 1009.2 -
21/01:30pm NW 7 16 - - - - - - - 31.8 1009.7 -
21/01:00pm NW 10 17 - - - - - - - 31.8 1010.3 -
21/12:30pm E 14 22 - - - - - - - 35.3 1010.4 -
21/12:00pm E 12 21 - - - - - - - 34.8 1010.8 -
21/11:30am E 16 22 - - - - - - - 34.3 1011.2 -
21/11:23am ESE 6 21 - - - - - - - 34.0 1011.4 -
21/11:00am WSW 3 4 - - - - - - - 30.1 1012.0 -
21/10:30am SSW 1 2 - - - - - - - 30.4 1012.3 -
21/10:00am SSW 3 5 - - - - - - - 29.6 1012.6 -
21/09:30am S 5 7 - - - - - - - 28.7 1012.7 -
21/09:00am SSW 5 7 - - - - - - - 27.9 1012.8 -
21/08:30am SSW 7 9 - - - - - - - 27.6 1012.7 -
21/08:00am SSW 6 8 - - - - - - - 27.5 1012.4 -
21/07:30am SSW 6 9 - - - - - - - 27.4 1012.2 -
21/07:00am SSW 6 8 - - - - - - - 27.7 1012.0 -
21/06:30am SSW 6 7 - - - - - - - 27.8 1011.8 -
21/06:00am SSE 5 7 - - - - - - - 27.6 1011.5 -
21/05:30am SW 2 3 - - - - - - - 27.9 1011.3 -
21/05:00am WSW 2 3 - - - - - - - 28.0 1011.0 -
21/04:30am CALM 0 2 - - - - - - - 28.0 1010.7 -
21/04:00am NW 1 2 - - - - - - - 28.0 1010.6 -
21/03:30am NW 3 5 - - - - - - - 28.0 1010.6 -
21/03:00am NW 3 6 - - - - - - - 28.1 1010.7 -
21/02:30am WNW 3 6 - - - - - - - 28.3 1010.8 -
21/02:00am W 4 7 - - - - - - - 28.5 1010.9 -
21/01:30am WNW 5 7 - - - - - - - 28.5 1011.1 -
21/01:00am WNW 4 6 - - - - - - - 28.6 1011.4 -
21/12:30am WNW 5 9 - - - - - - - 28.5 1011.6 -
21/12:00am W 5 7 - - - - - - - 28.9 1011.8 -
 
Date/Time
CST
Wind Sea
Height
m
Swell Vis
km
Cloud Weather Temp
°C
Press
hPa
Rain since
9am
mm
Dir  Spd
kts
Gust
kts
Height
m
Period
s
Dir
20/11:30pm WNW 4 6 - - - - - - - 28.9 1012.3 -
20/11:00pm W 4 5 - - - - - - - 28.9 1012.5 -
20/10:30pm W 5 7 - - - - - - - 28.9 1012.4 -
20/10:00pm W 7 10 - - - - - - - 29.0 1011.7 -
20/09:30pm W 8 10 - - - - - - - 29.3 1011.6 -
20/09:00pm W 9 11 - - - - - - - 29.2 1011.3 -
20/08:30pm W 11 14 - - - - - - - 29.6 1010.8 -
20/08:00pm WNW 9 16 - - - - - - - 30.6 1010.2 -
20/07:30pm SSW 1 2 - - - - - - - 30.6 1009.4 -
20/07:00pm WNW 2 4 - - - - - - - 30.8 1009.1 -
20/06:30pm NW 3 6 - - - - - - - 31.1 1008.7 -
20/06:00pm W 4 7 - - - - - - - 31.0 1008.3 -
20/05:30pm W 6 11 - - - - - - - 30.8 1008.2 -
20/05:00pm W 9 15 - - - - - - - 30.2 1007.9 -
20/04:30pm WNW 9 14 - - - - - - - 30.2 1008.0 -
20/04:00pm W 8 17 - - - - - - - 30.1 1008.4 -
20/03:30pm W 8 15 - - - - - - - 30.4 1008.9 -
20/03:00pm NW 7 16 - - - - - - - 30.6 1009.1 -
20/02:30pm NW 7 16 - - - - - - - 30.0 1009.5 -
20/02:00pm NW 8 17 - - - - - - - 30.3 1009.4 -
20/01:30pm NW 7 17 - - - - - - - 30.5 1009.9 -
20/01:00pm WNW 7 14 - - - - - - - 31.2 1010.4 -
20/12:30pm W 7 10 - - - - - - - 31.4 1010.8 -
20/12:00pm W 5 8 - - - - - - - 31.2 1011.4 -
20/11:30am W 5 6 - - - - - - - 30.0 1012.0 -
20/11:00am WSW 4 5 - - - - - - - 29.3 1012.5 -
20/10:30am WSW 5 7 - - - - - - - 29.0 1012.8 -
20/10:00am WSW 4 5 - - - - - - - 28.5 1013.1 -
20/09:30am WSW 1 3 - - - - - - - 29.2 1013.2 -
20/09:00am E 1 3 - - - - - - - 29.5 1013.3 -
20/08:30am NE 2 5 - - - - - - - 28.9 1013.4 -
20/08:00am ENE 3 6 - - - - - - - 28.5 1013.3 -
20/07:30am NE 2 4 - - - - - - - 28.0 1013.0 -
20/07:00am NE 1 4 - - - - - - - 27.7 1012.7 -
20/06:30am NE 2 4 - - - - - - - 27.1 1012.2 -
20/06:00am NE 3 4 - - - - - - - 27.1 1011.9 -
20/05:30am NNE 2 3 - - - - - - - 27.4 1011.5 -
20/05:00am NNE 2 4 - - - - - - - 27.6 1011.2 -
20/04:30am NNW 2 3 - - - - - - - 27.7 1010.8 -
20/04:00am NNW 2 3 - - - - - - - 27.8 1010.9 -
20/03:30am WNW 4 6 - - - - - - - 27.8 1010.8 -
20/03:00am NW 4 7 - - - - - - - 27.8 1010.9 -
20/02:30am NW 2 5 - - - - - - - 27.9 1011.5 -
20/02:00am NW 4 7 - - - - - - - 28.1 1011.9 -
20/01:30am NW 3 7 - - - - - - - 28.2 1012.3 -
20/01:00am NW 3 6 - - - - - - - 28.5 1012.7 -
20/12:30am WNW 4 8 - - - - - - - 28.5 1012.8 -
20/12:00am WNW 6 10 - - - - - - - 28.8 1012.8 -
 
Date/Time
CST
Wind Sea
Height
m
Swell Vis
km
Cloud Weather Temp
°C
Press
hPa
Rain since
9am
mm
Dir  Spd
kts
Gust
kts
Height
m
Period
s
Dir
19/11:30pm WNW 7 9 - - - - - - - 28.8 1012.8 -
19/11:00pm WNW 9 12 - - - - - - - 28.9 1013.0 -
19/10:30pm WNW 10 13 - - - - - - - 28.9 1012.8 -
19/10:00pm WNW 9 12 - - - - - - - 28.9 1012.7 -
19/09:30pm W 10 13 - - - - - - - 29.0 1012.5 -
19/09:00pm W 11 15 - - - - - - - 29.3 1012.1 -
19/08:30pm WNW 11 15 - - - - - - - 29.4 1011.6 -
19/08:00pm W 11 13 - - - - - - - 30.0 1011.2 -
19/07:30pm WNW 5 7 - - - - - - - 31.1 1010.6 -
19/07:00pm WNW 6 7 - - - - - - - 30.9 1010.3 -
19/06:30pm NNW 5 9 - - - - - - - 31.2 1009.8 -
19/06:00pm NW 5 9 - - - - - - - 31.2 1009.5 -
19/05:30pm WNW 9 14 - - - - - - - 31.0 1009.2 -
19/05:00pm NW 8 15 - - - - - - - 31.7 1009.1 -
19/04:30pm NNW 8 15 - - - - - - - 32.3 1009.0 -
19/04:00pm NW 6 13 - - - - - - - 33.3 1009.2 -
19/03:30pm N 9 18 - - - - - - - 32.6 1009.2 -
19/03:00pm NNE 8 15 - - - - - - - 32.5 1009.6 -
19/02:30pm N 8 13 - - - - - - - 32.9 1009.9 -
19/02:00pm N 8 12 - - - - - - - 32.5 1010.2 -
19/01:30pm NW 7 12 - - - - - - - 32.3 1010.7 -
19/01:00pm WNW 7 8 - - - - - - - 31.7 1011.1 -
19/12:30pm SW 7 9 - - - - - - - 30.9 1011.4 -
19/12:00pm SW 8 9 - - - - - - - 30.1 1012.2 -
19/11:30am SW 7 8 - - - - - - - 29.7 1012.6 -
19/11:00am SSW 7 9 - - - - - - - 29.2 1013.1 -
19/10:30am NW 1 3 - - - - - - - 30.9 1013.6 -
19/10:00am ESE 4 9 - - - - - - - 29.3 1013.8 -
19/09:30am ESE 5 8 - - - - - - - 28.4 1014.0 -
19/09:00am E 6 8 - - - - - - - 28.3 1014.0 -
19/08:30am E 5 7 - - - - - - - 28.2 1013.9 -
19/08:00am E 5 7 - - - - - - - 27.6 1013.6 -
19/07:30am E 5 8 - - - - - - - 27.1 1013.2 -
19/07:00am ENE 5 8 - - - - - - - 26.8 1012.7 -
19/06:30am ENE 4 9 - - - - - - - 26.5 1012.4 -
19/06:00am ENE 4 9 - - - - - - - 26.6 1012.4 -
19/05:30am NE 4 8 - - - - - - - 26.6 1012.2 -
19/05:00am NE 3 8 - - - - - - - 26.6 1011.9 -
19/04:30am ENE 4 8 - - - - - - - 26.7 1011.9 -
19/04:00am ENE 6 10 - - - - - - - 26.7 1012.0 -

Other formats

Comma delimited format used in spreadsheet applications
http://www.bom.gov.au/fwo/IDD60701/IDD60701.95122.axf

JavaScript Object Notation format (JSON) in row-major order
http://www.bom.gov.au/fwo/IDD60701/IDD60701.95122.json

Data quality

Most of these data are generated automatically and are frequently updated. Quality checks on data are not normally performed. It is possible for incorrect values to appear. Refer to information at About Latest Weather Observations and please check the disclaimer before using these data.